KBUR/BUR METAR and TAF weather

Enter ICAO airport designator
Station Type Date Time Source
KBUR METAR 2019/12/14 06:12 UTC NOAA

KBUR 140612Z 13005KT 2 1/2SM BR OVC004 13/12 A3003 RMK AO2 T01330122


Station Type Date Time Source
KBUR Decoded METAR 2019/12/14 06:12 UTC NOAA

BURBANK-GLENDALE-PASADENA, CA, United States (KBUR) 34-12N 118-22W 217M
Dec 14, 2019 - 01:12 AM EST / 2019.12.14 0612 UTC
Wind: from the SE (130 degrees) at 6 MPH (5 KT):0
Visibility: 2 1/2 mile(s):0
Sky conditions: overcast
Weather: mist
Temperature: 55.9 F (13.3 C)
Dew Point: 54.0 F (12.2 C)
Relative Humidity: 93%
Pressure (altimeter): 30.03 in. Hg (1016 hPa)
ob: KBUR 140612Z 13005KT 2 1/2SM BR OVC004 13/12 A3003 RMK AO2 T01330122
cycle: 6

Station Type Date Time Source
KBUR TAF 2019/12/14 06:45 UTC NOAA

TAF KBUR 140543Z 1406/1506 VRB03KT 3SM BR SCT200
FM140700 VRB03KT 3SM BR OVC007
FM141200 VRB03KT 5SM BR OVC012
FM141800 17008KT 6SM BR OVC022
FM142200 20008KT P6SM SCT025 BKN040
FM150200 34010KT P6SM BKN050

Example: see airport list